sensor_id;sensor_type;location;lat;lon;timestamp;pressure;altitude;pressure_sealevel;temperature;humidity
15487;BME280;7845;53.698;10.078;2023-02-12T00:00:40;103757.59;;;9.53;100.00
15487;BME280;7845;53.698;10.078;2023-02-12T00:03:06;103755.44;;;9.44;100.00
15487;BME280;7845;53.698;10.078;2023-02-12T00:05:31;103761.97;;;9.54;100.00
15487;BME280;7845;53.698;10.078;2023-02-12T00:07:57;103765.31;;;9.32;100.00
15487;BME280;7845;53.698;10.078;2023-02-12T00:10:23;103762.84;;;9.35;100.00
15487;BME280;7845;53.698;10.078;2023-02-12T00:12:52;103770.09;;;9.40;100.00
15487;BME280;7845;53.698;10.078;2023-02-12T00:15:17;103782.13;;;9.38;100.00
15487;BME280;7845;53.698;10.078;2023-02-12T00:17:43;103783.66;;;9.33;100.00
15487;BME280;7845;53.698;10.078;2023-02-12T00:20:08;103781.94;;;9.34;100.00
15487;BME280;7845;53.698;10.078;2023-02-12T00:22:34;103780.00;;;9.30;100.00
15487;BME280;7845;53.698;10.078;2023-02-12T00:24:59;103771.84;;;9.22;100.00
15487;BME280;7845;53.698;10.078;2023-02-12T00:27:24;103767.88;;;9.30;100.00
15487;BME280;7845;53.698;10.078;2023-02-12T00:29:50;103774.75;;;9.28;100.00
15487;BME280;7845;53.698;10.078;2023-02-12T00:32:15;103769.25;;;9.22;100.00
15487;BME280;7845;53.698;10.078;2023-02-12T00:34:45;103775.06;;;9.36;100.00
15487;BME280;7845;53.698;10.078;2023-02-12T00:37:10;103779.06;;;9.28;100.00
15487;BME280;7845;53.698;10.078;2023-02-12T00:39:37;103778.41;;;9.14;100.00
15487;BME280;7845;53.698;10.078;2023-02-12T00:42:03;103788.28;;;9.21;100.00
15487;BME280;7845;53.698;10.078;2023-02-12T00:44:28;103791.72;;;9.20;100.00
15487;BME280;7845;53.698;10.078;2023-02-12T00:46:54;103799.53;;;9.20;100.00
15487;BME280;7845;53.698;10.078;2023-02-12T00:49:20;103792.47;;;9.18;100.00
15487;BME280;7845;53.698;10.078;2023-02-12T00:51:47;103790.84;;;9.20;100.00
15487;BME280;7845;53.698;10.078;2023-02-12T00:54:13;103788.00;;;9.15;100.00
15487;BME280;7845;53.698;10.078;2023-02-12T00:56:38;103793.38;;;9.18;100.00
15487;BME280;7845;53.698;10.078;2023-02-12T00:59:03;103793.84;;;9.10;100.00
15487;BME280;7845;53.698;10.078;2023-02-12T01:01:29;103795.34;;;9.24;100.00
15487;BME280;7845;53.698;10.078;2023-02-12T01:03:54;103800.38;;;9.19;100.00
15487;BME280;7845;53.698;10.078;2023-02-12T01:06:21;103799.34;;;9.16;100.00
15487;BME280;7845;53.698;10.078;2023-02-12T01:08:49;103801.00;;;9.14;100.00
15487;BME280;7845;53.698;10.078;2023-02-12T01:11:15;103802.69;;;9.13;100.00
15487;BME280;7845;53.698;10.078;2023-02-12T01:13:41;103808.09;;;9.18;100.00
15487;BME280;7845;53.698;10.078;2023-02-12T01:16:11;103803.66;;;9.15;100.00
15487;BME280;7845;53.698;10.078;2023-02-12T01:18:38;103804.31;;;9.11;100.00
15487;BME280;7845;53.698;10.078;2023-02-12T01:21:11;103815.91;;;8.99;100.00
15487;BME280;7845;53.698;10.078;2023-02-12T01:23:36;103809.47;;;9.10;100.00
15487;BME280;7845;53.698;10.078;2023-02-12T01:26:02;103818.66;;;9.02;100.00
15487;BME280;7845;53.698;10.078;2023-02-12T01:28:27;103818.34;;;9.13;100.00
15487;BME280;7845;53.698;10.078;2023-02-12T01:30:52;103817.44;;;9.13;100.00
15487;BME280;7845;53.698;10.078;2023-02-12T01:33:18;103818.38;;;9.15;100.00
15487;BME280;7845;53.698;10.078;2023-02-12T01:35:45;103817.81;;;9.03;100.00
15487;BME280;7845;53.698;10.078;2023-02-12T01:38:10;103821.25;;;9.02;100.00
15487;BME280;7845;53.698;10.078;2023-02-12T01:40:35;103819.16;;;8.95;100.00
15487;BME280;7845;53.698;10.078;2023-02-12T01:43:02;103813.88;;;8.93;100.00
15487;BME280;7845;53.698;10.078;2023-02-12T01:47:52;103817.72;;;9.19;100.00
15487;BME280;7845;53.698;10.078;2023-02-12T01:50:19;103824.97;;;9.07;100.00
15487;BME280;7845;53.698;10.078;2023-02-12T01:52:49;103817.50;;;9.14;100.00
15487;BME280;7845;53.698;10.078;2023-02-12T01:55:16;103816.81;;;9.18;100.00
15487;BME280;7845;53.698;10.078;2023-02-12T01:57:42;103818.97;;;9.27;100.00
15487;BME280;7845;53.698;10.078;2023-02-12T02:00:17;103811.69;;;9.20;100.00
15487;BME280;7845;53.698;10.078;2023-02-12T02:02:50;103819.03;;;9.28;100.00
15487;BME280;7845;53.698;10.078;2023-02-12T02:05:23;103811.22;;;9.28;100.00
15487;BME280;7845;53.698;10.078;2023-02-12T02:07:49;103810.66;;;9.16;100.00
15487;BME280;7845;53.698;10.078;2023-02-12T02:10:14;103811.81;;;9.23;100.00
15487;BME280;7845;53.698;10.078;2023-02-12T02:12:40;103805.78;;;9.24;100.00
15487;BME280;7845;53.698;10.078;2023-02-12T02:15:25;103809.47;;;9.10;100.00
15487;BME280;7845;53.698;10.078;2023-02-12T02:18:01;103816.06;;;9.21;100.00
15487;BME280;7845;53.698;10.078;2023-02-12T02:20:47;103827.03;;;9.14;100.00
15487;BME280;7845;53.698;10.078;2023-02-12T02:31:40;103819.06;;;8.93;100.00
15487;BME280;7845;53.698;10.078;2023-02-12T02:34:20;103827.56;;;9.07;100.00
15487;BME280;7845;53.698;10.078;2023-02-12T02:37:06;103821.06;;;9.16;100.00
15487;BME280;7845;53.698;10.078;2023-02-12T02:39:36;103824.94;;;9.24;100.00
15487;BME280;7845;53.698;10.078;2023-02-12T02:42:18;103829.38;;;9.27;100.00
15487;BME280;7845;53.698;10.078;2023-02-12T02:44:49;103820.47;;;9.22;100.00
15487;BME280;7845;53.698;10.078;2023-02-12T02:47:18;103833.84;;;9.29;100.00
15487;BME280;7845;53.698;10.078;2023-02-12T02:49:49;103835.78;;;9.33;100.00
15487;BME280;7845;53.698;10.078;2023-02-12T02:52:21;103839.44;;;9.37;100.00
15487;BME280;7845;53.698;10.078;2023-02-12T02:54:52;103836.31;;;9.26;100.00
15487;BME280;7845;53.698;10.078;2023-02-12T02:57:25;103823.50;;;9.31;100.00
15487;BME280;7845;53.698;10.078;2023-02-12T03:00:00;103827.72;;;9.29;100.00
15487;BME280;7845;53.698;10.078;2023-02-12T03:02:31;103824.53;;;9.34;100.00
15487;BME280;7845;53.698;10.078;2023-02-12T03:05:08;103829.63;;;9.31;100.00
15487;BME280;7845;53.698;10.078;2023-02-12T03:08:02;103826.56;;;9.22;100.00
15487;BME280;7845;53.698;10.078;2023-02-12T03:10:35;103831.03;;;9.25;100.00
15487;BME280;7845;53.698;10.078;2023-02-12T03:13:15;103833.50;;;9.22;100.00
15487;BME280;7845;53.698;10.078;2023-02-12T03:15:59;103832.13;;;9.30;100.00
15487;BME280;7845;53.698;10.078;2023-02-12T03:18:29;103839.16;;;9.31;100.00
15487;BME280;7845;53.698;10.078;2023-02-12T03:21:10;103837.59;;;9.34;100.00
15487;BME280;7845;53.698;10.078;2023-02-12T03:23:43;103832.81;;;9.26;100.00
15487;BME280;7845;53.698;10.078;2023-02-12T03:26:18;103831.38;;;9.32;100.00
15487;BME280;7845;53.698;10.078;2023-02-12T03:28:45;103834.16;;;9.18;100.00
15487;BME280;7845;53.698;10.078;2023-02-12T03:31:35;103844.81;;;9.22;100.00
15487;BME280;7845;53.698;10.078;2023-02-12T03:34:10;103851.66;;;9.20;100.00
15487;BME280;7845;53.698;10.078;2023-02-12T03:36:58;103850.09;;;9.24;100.00
15487;BME280;7845;53.698;10.078;2023-02-12T03:39:52;103850.63;;;9.17;100.00
15487;BME280;7845;53.698;10.078;2023-02-12T03:45:32;103856.13;;;9.05;100.00
15487;BME280;7845;53.698;10.078;2023-02-12T03:48:23;103860.47;;;9.22;100.00
15487;BME280;7845;53.698;10.078;2023-02-12T03:51:18;103860.91;;;9.14;100.00
15487;BME280;7845;53.698;10.078;2023-02-12T03:53:46;103866.47;;;9.21;100.00
15487;BME280;7845;53.698;10.078;2023-02-12T03:56:18;103868.75;;;9.14;100.00
15487;BME280;7845;53.698;10.078;2023-02-12T03:58:44;103867.97;;;9.16;100.00
15487;BME280;7845;53.698;10.078;2023-02-12T04:01:11;103870.13;;;9.25;100.00
15487;BME280;7845;53.698;10.078;2023-02-12T04:03:37;103877.06;;;9.24;100.00
15487;BME280;7845;53.698;10.078;2023-02-12T04:06:04;103884.06;;;9.25;100.00
15487;BME280;7845;53.698;10.078;2023-02-12T04:08:31;103883.44;;;9.31;100.00
15487;BME280;7845;53.698;10.078;2023-02-12T04:11:07;103888.66;;;9.31;100.00
15487;BME280;7845;53.698;10.078;2023-02-12T04:16:40;103883.91;;;9.22;100.00
15487;BME280;7845;53.698;10.078;2023-02-12T04:19:09;103878.25;;;9.31;100.00
15487;BME280;7845;53.698;10.078;2023-02-12T04:21:49;103884.78;;;9.23;100.00
15487;BME280;7845;53.698;10.078;2023-02-12T04:24:49;103887.78;;;9.30;100.00
15487;BME280;7845;53.698;10.078;2023-02-12T04:27:20;103897.59;;;9.36;100.00
15487;BME280;7845;53.698;10.078;2023-02-12T04:30:42;103887.53;;;9.43;100.00
15487;BME280;7845;53.698;10.078;2023-02-12T04:32:46;103895.94;;;9.38;100.00
15487;BME280;7845;53.698;10.078;2023-02-12T04:35:35;103892.66;;;9.42;100.00
15487;BME280;7845;53.698;10.078;2023-02-12T04:38:09;103897.22;;;9.46;100.00
15487;BME280;7845;53.698;10.078;2023-02-12T04:40:40;103907.97;;;9.54;100.00
15487;BME280;7845;53.698;10.078;2023-02-12T04:43:06;103905.09;;;9.48;100.00
15487;BME280;7845;53.698;10.078;2023-02-12T04:45:35;103903.38;;;9.48;100.00
15487;BME280;7845;53.698;10.078;2023-02-12T04:48:01;103907.41;;;9.41;100.00
15487;BME280;7845;53.698;10.078;2023-02-12T04:50:35;103908.31;;;9.42;100.00
15487;BME280;7845;53.698;10.078;2023-02-12T04:53:01;103909.56;;;9.50;100.00
15487;BME280;7845;53.698;10.078;2023-02-12T04:55:27;103913.16;;;9.52;100.00
15487;BME280;7845;53.698;10.078;2023-02-12T04:57:52;103909.50;;;9.49;100.00
15487;BME280;7845;53.698;10.078;2023-02-12T05:00:17;103909.69;;;9.53;100.00
15487;BME280;7845;53.698;10.078;2023-02-12T05:02:43;103904.56;;;9.55;100.00
15487;BME280;7845;53.698;10.078;2023-02-12T05:05:08;103915.06;;;9.56;100.00
15487;BME280;7845;53.698;10.078;2023-02-12T05:07:33;103912.38;;;9.55;100.00
15487;BME280;7845;53.698;10.078;2023-02-12T05:09:59;103916.94;;;9.59;100.00
15487;BME280;7845;53.698;10.078;2023-02-12T05:12:24;103908.56;;;9.66;100.00
15487;BME280;7845;53.698;10.078;2023-02-12T05:14:50;103917.19;;;9.65;100.00
15487;BME280;7845;53.698;10.078;2023-02-12T05:17:15;103911.16;;;9.66;100.00
15487;BME280;7845;53.698;10.078;2023-02-12T05:19:40;103925.91;;;9.65;100.00
15487;BME280;7845;53.698;10.078;2023-02-12T05:22:06;103936.28;;;9.64;100.00
15487;BME280;7845;53.698;10.078;2023-02-12T05:24:31;103931.06;;;9.64;100.00
15487;BME280;7845;53.698;10.078;2023-02-12T05:26:56;103925.47;;;9.56;100.00
15487;BME280;7845;53.698;10.078;2023-02-12T05:29:22;103929.22;;;9.61;100.00
15487;BME280;7845;53.698;10.078;2023-02-12T05:31:47;103935.19;;;9.59;100.00
15487;BME280;7845;53.698;10.078;2023-02-12T05:34:13;103930.09;;;9.62;100.00
15487;BME280;7845;53.698;10.078;2023-02-12T05:36:40;103936.22;;;9.62;100.00
15487;BME280;7845;53.698;10.078;2023-02-12T05:39:05;103926.38;;;9.57;100.00
15487;BME280;7845;53.698;10.078;2023-02-12T05:41:33;103933.69;;;9.64;100.00
15487;BME280;7845;53.698;10.078;2023-02-12T05:44:02;103938.06;;;9.65;100.00
15487;BME280;7845;53.698;10.078;2023-02-12T05:46:29;103937.72;;;9.57;100.00
15487;BME280;7845;53.698;10.078;2023-02-12T05:48:55;103925.78;;;9.62;100.00
15487;BME280;7845;53.698;10.078;2023-02-12T05:51:22;103941.06;;;9.55;100.00
15487;BME280;7845;53.698;10.078;2023-02-12T05:53:51;103954.91;;;9.54;100.00
15487;BME280;7845;53.698;10.078;2023-02-12T05:56:22;103947.09;;;9.54;100.00
15487;BME280;7845;53.698;10.078;2023-02-12T05:58:59;103939.88;;;9.48;100.00
15487;BME280;7845;53.698;10.078;2023-02-12T06:01:29;103943.53;;;9.52;100.00
15487;BME280;7845;53.698;10.078;2023-02-12T06:03:55;103940.31;;;9.57;100.00
15487;BME280;7845;53.698;10.078;2023-02-12T06:06:20;103942.03;;;9.57;100.00
15487;BME280;7845;53.698;10.078;2023-02-12T06:08:47;103943.88;;;9.59;100.00
15487;BME280;7845;53.698;10.078;2023-02-12T06:11:14;103949.66;;;9.52;100.00
15487;BME280;7845;53.698;10.078;2023-02-12T06:13:40;103946.16;;;9.52;100.00
15487;BME280;7845;53.698;10.078;2023-02-12T06:16:06;103948.09;;;9.56;100.00
15487;BME280;7845;53.698;10.078;2023-02-12T06:18:34;103952.41;;;9.55;100.00
15487;BME280;7845;53.698;10.078;2023-02-12T06:21:02;103944.72;;;9.58;100.00
15487;BME280;7845;53.698;10.078;2023-02-12T06:23:27;103941.41;;;9.62;100.00
15487;BME280;7845;53.698;10.078;2023-02-12T06:25:55;103948.44;;;9.63;100.00
15487;BME280;7845;53.698;10.078;2023-02-12T06:28:21;103948.56;;;9.66;100.00
15487;BME280;7845;53.698;10.078;2023-02-12T06:30:47;103955.75;;;9.70;100.00
15487;BME280;7845;53.698;10.078;2023-02-12T06:33:12;103958.13;;;9.66;100.00
15487;BME280;7845;53.698;10.078;2023-02-12T06:35:38;103960.81;;;9.67;100.00
15487;BME280;7845;53.698;10.078;2023-02-12T06:38:03;103958.34;;;9.70;100.00
15487;BME280;7845;53.698;10.078;2023-02-12T06:40:31;103960.94;;;9.70;100.00
15487;BME280;7845;53.698;10.078;2023-02-12T06:42:56;103966.16;;;9.70;100.00
15487;BME280;7845;53.698;10.078;2023-02-12T06:45:22;103973.16;;;9.71;100.00
15487;BME280;7845;53.698;10.078;2023-02-12T06:47:47;103984.47;;;9.72;100.00
15487;BME280;7845;53.698;10.078;2023-02-12T06:50:13;103977.78;;;9.59;100.00
15487;BME280;7845;53.698;10.078;2023-02-12T06:52:38;103983.09;;;9.61;100.00
15487;BME280;7845;53.698;10.078;2023-02-12T06:55:03;103988.50;;;9.65;100.00
15487;BME280;7845;53.698;10.078;2023-02-12T06:57:29;103981.69;;;9.67;100.00
15487;BME280;7845;53.698;10.078;2023-02-12T06:59:55;103981.59;;;9.66;100.00
15487;BME280;7845;53.698;10.078;2023-02-12T07:02:20;103986.75;;;9.64;100.00
15487;BME280;7845;53.698;10.078;2023-02-12T07:04:46;103999.94;;;9.67;100.00
15487;BME280;7845;53.698;10.078;2023-02-12T07:07:11;103996.34;;;9.65;100.00
15487;BME280;7845;53.698;10.078;2023-02-12T07:09:39;104007.00;;;9.70;100.00
15487;BME280;7845;53.698;10.078;2023-02-12T07:12:05;104007.91;;;9.70;100.00
15487;BME280;7845;53.698;10.078;2023-02-12T07:14:30;104006.16;;;9.71;100.00
15487;BME280;7845;53.698;10.078;2023-02-12T07:16:56;104009.75;;;9.73;100.00
15487;BME280;7845;53.698;10.078;2023-02-12T07:19:23;104010.50;;;9.70;100.00
15487;BME280;7845;53.698;10.078;2023-02-12T07:21:50;104019.34;;;9.74;100.00
15487;BME280;7845;53.698;10.078;2023-02-12T07:24:17;104016.69;;;9.72;100.00
15487;BME280;7845;53.698;10.078;2023-02-12T07:26:42;104029.44;;;9.66;100.00
15487;BME280;7845;53.698;10.078;2023-02-12T07:29:07;104031.72;;;9.78;100.00
15487;BME280;7845;53.698;10.078;2023-02-12T07:31:33;104032.53;;;9.77;100.00
15487;BME280;7845;53.698;10.078;2023-02-12T07:34:00;104030.16;;;9.81;100.00
15487;BME280;7845;53.698;10.078;2023-02-12T07:36:29;104032.84;;;9.83;100.00
15487;BME280;7845;53.698;10.078;2023-02-12T07:38:55;104031.13;;;9.83;100.00
15487;BME280;7845;53.698;10.078;2023-02-12T07:41:23;104044.59;;;9.92;100.00
15487;BME280;7845;53.698;10.078;2023-02-12T07:43:53;104035.16;;;9.94;100.00
15487;BME280;7845;53.698;10.078;2023-02-12T07:46:22;104038.19;;;9.86;100.00
15487;BME280;7845;53.698;10.078;2023-02-12T07:48:51;104036.88;;;9.94;100.00
15487;BME280;7845;53.698;10.078;2023-02-12T07:51:17;104044.91;;;9.98;100.00
15487;BME280;7845;53.698;10.078;2023-02-12T07:53:46;104039.53;;;9.95;100.00
15487;BME280;7845;53.698;10.078;2023-02-12T07:56:14;104039.53;;;9.95;100.00
15487;BME280;7845;53.698;10.078;2023-02-12T07:58:42;104045.78;;;9.99;100.00
15487;BME280;7845;53.698;10.078;2023-02-12T08:01:13;104049.22;;;9.98;100.00
15487;BME280;7845;53.698;10.078;2023-02-12T08:03:39;104043.38;;;10.03;100.00
15487;BME280;7845;53.698;10.078;2023-02-12T08:06:09;104047.44;;;9.97;100.00
15487;BME280;7845;53.698;10.078;2023-02-12T08:08:34;104053.91;;;10.05;100.00
15487;BME280;7845;53.698;10.078;2023-02-12T08:11:03;104041.06;;;10.10;100.00
15487;BME280;7845;53.698;10.078;2023-02-12T08:13:31;104049.16;;;10.14;100.00
15487;BME280;7845;53.698;10.078;2023-02-12T08:16:01;104053.09;;;10.06;100.00
15487;BME280;7845;53.698;10.078;2023-02-12T08:18:26;104055.34;;;10.16;100.00
15487;BME280;7845;53.698;10.078;2023-02-12T08:20:51;104061.06;;;10.09;100.00
15487;BME280;7845;53.698;10.078;2023-02-12T08:23:17;104056.22;;;10.17;100.00
15487;BME280;7845;53.698;10.078;2023-02-12T08:25:43;104068.16;;;10.12;100.00
15487;BME280;7845;53.698;10.078;2023-02-12T08:28:12;104060.09;;;10.07;100.00
15487;BME280;7845;53.698;10.078;2023-02-12T08:30:37;104052.34;;;10.09;100.00
15487;BME280;7845;53.698;10.078;2023-02-12T08:33:04;104078.59;;;10.12;100.00
15487;BME280;7845;53.698;10.078;2023-02-12T08:35:31;104070.84;;;10.13;100.00
15487;BME280;7845;53.698;10.078;2023-02-12T08:37:56;104068.69;;;10.05;100.00
15487;BME280;7845;53.698;10.078;2023-02-12T08:40:22;104075.84;;;10.09;100.00
15487;BME280;7845;53.698;10.078;2023-02-12T08:42:47;104075.09;;;10.11;100.00
15487;BME280;7845;53.698;10.078;2023-02-12T08:45:12;104084.88;;;10.15;100.00
15487;BME280;7845;53.698;10.078;2023-02-12T08:47:37;104073.75;;;10.19;100.00
15487;BME280;7845;53.698;10.078;2023-02-12T08:50:03;104076.38;;;10.19;100.00
15487;BME280;7845;53.698;10.078;2023-02-12T08:52:29;104077.03;;;10.33;100.00
15487;BME280;7845;53.698;10.078;2023-02-12T08:54:54;104078.16;;;10.39;100.00
15487;BME280;7845;53.698;10.078;2023-02-12T08:57:19;104079.78;;;10.36;100.00
15487;BME280;7845;53.698;10.078;2023-02-12T08:59:44;104076.75;;;10.46;100.00
15487;BME280;7845;53.698;10.078;2023-02-12T09:02:10;104084.81;;;10.50;100.00
15487;BME280;7845;53.698;10.078;2023-02-12T09:04:35;104081.63;;;10.57;100.00
15487;BME280;7845;53.698;10.078;2023-02-12T09:07:00;104085.91;;;10.55;100.00
15487;BME280;7845;53.698;10.078;2023-02-12T09:09:26;104097.28;;;10.57;100.00
15487;BME280;7845;53.698;10.078;2023-02-12T09:11:51;104086.72;;;10.54;100.00
15487;BME280;7845;53.698;10.078;2023-02-12T09:14:17;104088.22;;;10.49;100.00
15487;BME280;7845;53.698;10.078;2023-02-12T09:16:47;104096.50;;;10.59;100.00
15487;BME280;7845;53.698;10.078;2023-02-12T09:19:13;104091.78;;;10.51;100.00
15487;BME280;7845;53.698;10.078;2023-02-12T09:21:40;104092.56;;;10.49;100.00
15487;BME280;7845;53.698;10.078;2023-02-12T09:24:05;104084.09;;;10.54;100.00
15487;BME280;7845;53.698;10.078;2023-02-12T09:26:31;104087.69;;;10.57;100.00
15487;BME280;7845;53.698;10.078;2023-02-12T09:28:56;104089.56;;;10.59;100.00
15487;BME280;7845;53.698;10.078;2023-02-12T09:31:25;104081.75;;;10.61;100.00
15487;BME280;7845;53.698;10.078;2023-02-12T09:33:57;104093.19;;;10.63;100.00
15487;BME280;7845;53.698;10.078;2023-02-12T09:36:23;104094.28;;;10.68;100.00
15487;BME280;7845;53.698;10.078;2023-02-12T09:38:49;104094.91;;;10.62;100.00
15487;BME280;7845;53.698;10.078;2023-02-12T09:47:22;104103.34;;;10.76;100.00
15487;BME280;7845;53.698;10.078;2023-02-12T09:52:47;104106.09;;;10.79;100.00
15487;BME280;7845;53.698;10.078;2023-02-12T09:55:17;104111.47;;;10.82;100.00
15487;BME280;7845;53.698;10.078;2023-02-12T09:57:43;104114.72;;;10.76;100.00
15487;BME280;7845;53.698;10.078;2023-02-12T10:00:14;104116.22;;;10.71;100.00
15487;BME280;7845;53.698;10.078;2023-02-12T10:02:40;104122.75;;;10.62;100.00
15487;BME280;7845;53.698;10.078;2023-02-12T10:05:28;104122.69;;;10.60;100.00
15487;BME280;7845;53.698;10.078;2023-02-12T10:08:15;104118.06;;;10.54;100.00
15487;BME280;7845;53.698;10.078;2023-02-12T10:11:00;104127.16;;;10.63;100.00
15487;BME280;7845;53.698;10.078;2023-02-12T10:27:20;104130.81;;;10.66;100.00
15487;BME280;7845;53.698;10.078;2023-02-12T10:29:50;104124.06;;;10.71;100.00
15487;BME280;7845;53.698;10.078;2023-02-12T10:32:25;104122.53;;;10.76;100.00
15487;BME280;7845;53.698;10.078;2023-02-12T10:34:52;104124.22;;;10.74;100.00
15487;BME280;7845;53.698;10.078;2023-02-12T10:37:43;104123.22;;;10.72;100.00
15487;BME280;7845;53.698;10.078;2023-02-12T10:40:29;104116.50;;;10.77;100.00
15487;BME280;7845;53.698;10.078;2023-02-12T10:42:57;104115.75;;;10.80;100.00
15487;BME280;7845;53.698;10.078;2023-02-12T10:45:34;104117.53;;;10.81;100.00
15487;BME280;7845;53.698;10.078;2023-02-12T10:48:05;104115.13;;;10.85;100.00
15487;BME280;7845;53.698;10.078;2023-02-12T10:53:36;104112.50;;;10.85;100.00
15487;BME280;7845;53.698;10.078;2023-02-12T10:56:11;104109.34;;;10.92;100.00
15487;BME280;7845;53.698;10.078;2023-02-12T10:58:49;104116.22;;;10.90;100.00
15487;BME280;7845;53.698;10.078;2023-02-12T11:01:19;104108.19;;;10.86;100.00
15487;BME280;7845;53.698;10.078;2023-02-12T11:03:44;104115.41;;;10.91;100.00
15487;BME280;7845;53.698;10.078;2023-02-12T11:06:13;104106.66;;;10.91;100.00
15487;BME280;7845;53.698;10.078;2023-02-12T11:08:39;104110.25;;;10.93;100.00
15487;BME280;7845;53.698;10.078;2023-02-12T11:11:27;104103.28;;;10.93;100.00
15487;BME280;7845;53.698;10.078;2023-02-12T11:14:19;104101.56;;;10.94;100.00
15487;BME280;7845;53.698;10.078;2023-02-12T11:16:58;104101.66;;;10.95;100.00
15487;BME280;7845;53.698;10.078;2023-02-12T11:19:28;104097.19;;;10.93;100.00
15487;BME280;7845;53.698;10.078;2023-02-12T11:22:09;104101.44;;;10.91;100.00
15487;BME280;7845;53.698;10.078;2023-02-12T11:24:36;104098.50;;;10.83;100.00
15487;BME280;7845;53.698;10.078;2023-02-12T11:29:42;104095.38;;;10.92;100.00
15487;BME280;7845;53.698;10.078;2023-02-12T11:32:15;104098.50;;;10.83;100.00
15487;BME280;7845;53.698;10.078;2023-02-12T11:34:41;104089.63;;;10.99;100.00
15487;BME280;7845;53.698;10.078;2023-02-12T11:37:17;104087.00;;;10.99;100.00
15487;BME280;7845;53.698;10.078;2023-02-12T11:39:47;104086.41;;;11.06;100.00
15487;BME280;7845;53.698;10.078;2023-02-12T11:42:17;104084.06;;;11.12;100.00
15487;BME280;7845;53.698;10.078;2023-02-12T11:44:56;104084.28;;;11.17;100.00
15487;BME280;7845;53.698;10.078;2023-02-12T11:47:28;104082.28;;;11.11;100.00
15487;BME280;7845;53.698;10.078;2023-02-12T11:50:04;104084.59;;;11.24;100.00
15487;BME280;7845;53.698;10.078;2023-02-12T11:52:33;104084.69;;;11.26;100.00
15487;BME280;7845;53.698;10.078;2023-02-12T11:55:02;104078.84;;;11.12;100.00
15487;BME280;7845;53.698;10.078;2023-02-12T11:57:36;104086.91;;;11.17;100.00
15487;BME280;7845;53.698;10.078;2023-02-12T12:00:41;104083.13;;;11.10;100.00
15487;BME280;7845;53.698;10.078;2023-02-12T12:03:17;104085.91;;;11.15;100.00
15487;BME280;7845;53.698;10.078;2023-02-12T12:05:48;104092.19;;;11.18;100.00
15487;BME280;7845;53.698;10.078;2023-02-12T12:08:56;104084.28;;;11.17;100.00
15487;BME280;7845;53.698;10.078;2023-02-12T12:11:33;104079.31;;;11.23;100.00
15487;BME280;7845;53.698;10.078;2023-02-12T12:14:13;104078.03;;;11.13;100.00
15487;BME280;7845;53.698;10.078;2023-02-12T12:16:51;104080.94;;;11.21;100.00
15487;BME280;7845;53.698;10.078;2023-02-12T12:20:08;104078.28;;;11.19;100.00
15487;BME280;7845;53.698;10.078;2023-02-12T12:25:17;104076.44;;;11.17;100.00
15487;BME280;7845;53.698;10.078;2023-02-12T12:30:52;104064.97;;;11.34;100.00
15487;BME280;7845;53.698;10.078;2023-02-12T12:39:15;104061.16;;;11.46;100.00
15487;BME280;7845;53.698;10.078;2023-02-12T12:44:42;104056.84;;;11.69;100.00
15487;BME280;7845;53.698;10.078;2023-02-12T12:47:15;104052.41;;;11.46;100.00
15487;BME280;7845;53.698;10.078;2023-02-12T12:50:02;104044.16;;;11.57;100.00
15487;BME280;7845;53.698;10.078;2023-02-12T12:53:06;104041.38;;;11.74;100.00
15487;BME280;7845;53.698;10.078;2023-02-12T12:58:35;104029.53;;;11.83;100.00
15487;BME280;7845;53.698;10.078;2023-02-12T13:06:59;104029.00;;;11.70;100.00
15487;BME280;7845;53.698;10.078;2023-02-12T13:12:32;104035.38;;;11.55;100.00
15487;BME280;7845;53.698;10.078;2023-02-12T13:15:43;104032.03;;;11.59;100.00
15487;BME280;7845;53.698;10.078;2023-02-12T13:18:22;104040.13;;;11.65;100.00
15487;BME280;7845;53.698;10.078;2023-02-12T13:21:00;104033.81;;;11.60;100.00
15487;BME280;7845;53.698;10.078;2023-02-12T13:23:37;104027.03;;;11.65;100.00
15487;BME280;7845;53.698;10.078;2023-02-12T13:26:31;104031.13;;;11.59;100.00
15487;BME280;7845;53.698;10.078;2023-02-12T13:29:05;104019.03;;;11.61;100.00
15487;BME280;7845;53.698;10.078;2023-02-12T13:31:41;104028.47;;;11.57;100.00
15487;BME280;7845;53.698;10.078;2023-02-12T13:34:13;104028.38;;;11.56;100.00
15487;BME280;7845;53.698;10.078;2023-02-12T13:36:40;104022.56;;;11.63;100.00
15487;BME280;7845;53.698;10.078;2023-02-12T13:39:15;104026.88;;;11.61;100.00
15487;BME280;7845;53.698;10.078;2023-02-12T13:41:51;104024.28;;;11.62;100.00
15487;BME280;7845;53.698;10.078;2023-02-12T13:44:22;104033.88;;;11.62;100.00
15487;BME280;7845;53.698;10.078;2023-02-12T13:47:16;104033.31;;;11.48;100.00
15487;BME280;7845;53.698;10.078;2023-02-12T13:49:58;104028.38;;;11.56;100.00
15487;BME280;7845;53.698;10.078;2023-02-12T13:52:32;104028.78;;;11.44;100.00
15487;BME280;7845;53.698;10.078;2023-02-12T13:57:30;104034.22;;;11.49;100.00
15487;BME280;7845;53.698;10.078;2023-02-12T13:59:55;104034.75;;;11.40;100.00
15487;BME280;7845;53.698;10.078;2023-02-12T14:02:41;104031.88;;;11.34;100.00
15487;BME280;7845;53.698;10.078;2023-02-12T14:05:23;104030.53;;;11.44;100.00
15487;BME280;7845;53.698;10.078;2023-02-12T14:07:52;104035.31;;;11.33;100.00
15487;BME280;7845;53.698;10.078;2023-02-12T14:10:29;104029.25;;;11.34;100.00
15487;BME280;7845;53.698;10.078;2023-02-12T14:13:08;104033.59;;;11.34;100.00
15487;BME280;7845;53.698;10.078;2023-02-12T14:15:42;104028.53;;;11.18;100.00
15487;BME280;7845;53.698;10.078;2023-02-12T14:18:23;104031.34;;;11.22;100.00